sensor_id;sensor_type;location;lat;lon;timestamp;temperature;humidity
27848;DHT22;15212;48.830;8.730;2022-10-26T00:01:22;13.00;99.90
27848;DHT22;15212;48.830;8.730;2022-10-26T00:03:53;13.00;99.90
27848;DHT22;15212;48.830;8.730;2022-10-26T00:06:23;13.00;99.90
27848;DHT22;15212;48.830;8.730;2022-10-26T00:08:55;13.10;99.90
27848;DHT22;15212;48.830;8.730;2022-10-26T00:11:24;13.10;99.90
27848;DHT22;15212;48.830;8.730;2022-10-26T00:13:52;13.00;99.90
27848;DHT22;15212;48.830;8.730;2022-10-26T00:16:23;13.00;99.90
27848;DHT22;15212;48.830;8.730;2022-10-26T00:18:53;13.00;99.90
27848;DHT22;15212;48.830;8.730;2022-10-26T00:21:21;13.00;99.90
27848;DHT22;15212;48.830;8.730;2022-10-26T00:23:49;13.00;99.90
27848;DHT22;15212;48.830;8.730;2022-10-26T00:26:18;13.00;99.90
27848;DHT22;15212;48.830;8.730;2022-10-26T00:28:46;13.10;99.90
27848;DHT22;15212;48.830;8.730;2022-10-26T00:31:15;13.10;99.90
27848;DHT22;15212;48.830;8.730;2022-10-26T00:33:43;13.10;99.90
27848;DHT22;15212;48.830;8.730;2022-10-26T00:36:12;13.20;99.90
27848;DHT22;15212;48.830;8.730;2022-10-26T00:38:42;13.20;99.90
27848;DHT22;15212;48.830;8.730;2022-10-26T00:41:23;13.20;99.90
27848;DHT22;15212;48.830;8.730;2022-10-26T00:43:56;13.20;99.90
27848;DHT22;15212;48.830;8.730;2022-10-26T00:46:34;13.20;99.90
27848;DHT22;15212;48.830;8.730;2022-10-26T00:49:11;13.20;99.90
27848;DHT22;15212;48.830;8.730;2022-10-26T00:51:41;13.30;99.90
27848;DHT22;15212;48.830;8.730;2022-10-26T00:54:14;13.30;99.90
27848;DHT22;15212;48.830;8.730;2022-10-26T00:56:48;13.30;99.90
27848;DHT22;15212;48.830;8.730;2022-10-26T00:59:18;13.30;99.90
27848;DHT22;15212;48.830;8.730;2022-10-26T01:01:48;13.30;99.90
27848;DHT22;15212;48.830;8.730;2022-10-26T01:04:18;13.30;99.90
27848;DHT22;15212;48.830;8.730;2022-10-26T01:06:47;13.30;99.90
27848;DHT22;15212;48.830;8.730;2022-10-26T01:09:18;13.30;99.90
27848;DHT22;15212;48.830;8.730;2022-10-26T01:11:47;13.30;99.90
27848;DHT22;15212;48.830;8.730;2022-10-26T01:14:17;13.40;99.90
27848;DHT22;15212;48.830;8.730;2022-10-26T01:20:10;13.40;99.90
27848;DHT22;15212;48.830;8.730;2022-10-26T01:26:06;13.50;99.90
27848;DHT22;15212;48.830;8.730;2022-10-26T01:31:33;13.50;99.90
27848;DHT22;15212;48.830;8.730;2022-10-26T01:34:21;13.50;99.90
27848;DHT22;15212;48.830;8.730;2022-10-26T01:36:59;13.60;99.90
27848;DHT22;15212;48.830;8.730;2022-10-26T01:39:44;13.60;99.90
27848;DHT22;15212;48.830;8.730;2022-10-26T01:42:16;13.60;99.90
27848;DHT22;15212;48.830;8.730;2022-10-26T01:44:53;13.60;99.90
27848;DHT22;15212;48.830;8.730;2022-10-26T01:47:20;13.50;99.90
27848;DHT22;15212;48.830;8.730;2022-10-26T01:49:57;13.50;99.90
27848;DHT22;15212;48.830;8.730;2022-10-26T01:52:27;13.40;99.90
27848;DHT22;15212;48.830;8.730;2022-10-26T01:55:33;13.40;99.90
27848;DHT22;15212;48.830;8.730;2022-10-26T01:57:56;13.40;99.90
27848;DHT22;15212;48.830;8.730;2022-10-26T02:00:27;13.40;99.90
27848;DHT22;15212;48.830;8.730;2022-10-26T02:03:07;13.40;99.90
27848;DHT22;15212;48.830;8.730;2022-10-26T02:06:37;13.40;99.90
27848;DHT22;15212;48.830;8.730;2022-10-26T02:11:42;13.40;99.90
27848;DHT22;15212;48.830;8.730;2022-10-26T02:14:25;13.40;99.90
27848;DHT22;15212;48.830;8.730;2022-10-26T02:17:06;13.40;99.90
27848;DHT22;15212;48.830;8.730;2022-10-26T02:19:37;13.40;99.90
27848;DHT22;15212;48.830;8.730;2022-10-26T02:22:32;13.40;99.90
27848;DHT22;15212;48.830;8.730;2022-10-26T02:25:00;13.40;99.90
27848;DHT22;15212;48.830;8.730;2022-10-26T02:27:33;13.30;99.90
27848;DHT22;15212;48.830;8.730;2022-10-26T02:30:04;13.30;99.90
27848;DHT22;15212;48.830;8.730;2022-10-26T02:32:35;13.40;99.90
27848;DHT22;15212;48.830;8.730;2022-10-26T02:35:05;13.40;99.90
27848;DHT22;15212;48.830;8.730;2022-10-26T02:37:35;13.40;99.90
27848;DHT22;15212;48.830;8.730;2022-10-26T02:40:07;13.40;99.90
27848;DHT22;15212;48.830;8.730;2022-10-26T02:42:38;13.40;99.90
27848;DHT22;15212;48.830;8.730;2022-10-26T02:45:11;13.50;99.90
27848;DHT22;15212;48.830;8.730;2022-10-26T02:47:42;13.50;99.90
27848;DHT22;15212;48.830;8.730;2022-10-26T02:50:10;13.60;99.90
27848;DHT22;15212;48.830;8.730;2022-10-26T02:52:59;13.60;99.90
27848;DHT22;15212;48.830;8.730;2022-10-26T02:55:46;13.50;99.90
27848;DHT22;15212;48.830;8.730;2022-10-26T02:58:15;13.50;99.90
27848;DHT22;15212;48.830;8.730;2022-10-26T03:00:45;13.60;99.90
27848;DHT22;15212;48.830;8.730;2022-10-26T03:03:14;13.60;99.90
27848;DHT22;15212;48.830;8.730;2022-10-26T03:05:43;13.60;99.90
27848;DHT22;15212;48.830;8.730;2022-10-26T03:08:11;13.60;99.90
27848;DHT22;15212;48.830;8.730;2022-10-26T03:10:44;13.60;99.90
27848;DHT22;15212;48.830;8.730;2022-10-26T03:13:13;13.60;99.90
27848;DHT22;15212;48.830;8.730;2022-10-26T03:15:42;13.60;99.90
27848;DHT22;15212;48.830;8.730;2022-10-26T03:18:10;13.60;99.90
27848;DHT22;15212;48.830;8.730;2022-10-26T03:20:44;13.60;99.90
27848;DHT22;15212;48.830;8.730;2022-10-26T03:23:13;13.60;99.90
27848;DHT22;15212;48.830;8.730;2022-10-26T03:25:41;13.60;99.90
27848;DHT22;15212;48.830;8.730;2022-10-26T03:28:09;13.60;99.90
27848;DHT22;15212;48.830;8.730;2022-10-26T03:30:38;13.50;99.90
27848;DHT22;15212;48.830;8.730;2022-10-26T03:33:06;13.50;99.90
27848;DHT22;15212;48.830;8.730;2022-10-26T03:35:34;13.50;99.90
27848;DHT22;15212;48.830;8.730;2022-10-26T03:38:03;13.50;99.90
27848;DHT22;15212;48.830;8.730;2022-10-26T03:40:31;13.50;99.90
27848;DHT22;15212;48.830;8.730;2022-10-26T03:43:02;13.50;99.90
27848;DHT22;15212;48.830;8.730;2022-10-26T03:45:30;13.50;99.90
27848;DHT22;15212;48.830;8.730;2022-10-26T03:47:59;13.50;99.90
27848;DHT22;15212;48.830;8.730;2022-10-26T03:50:27;13.50;99.90
27848;DHT22;15212;48.830;8.730;2022-10-26T03:52:55;13.40;99.90
27848;DHT22;15212;48.830;8.730;2022-10-26T03:55:24;13.40;99.90
27848;DHT22;15212;48.830;8.730;2022-10-26T03:57:52;13.30;99.90
27848;DHT22;15212;48.830;8.730;2022-10-26T04:00:20;13.20;99.90
27848;DHT22;15212;48.830;8.730;2022-10-26T04:02:57;13.20;99.90
27848;DHT22;15212;48.830;8.730;2022-10-26T04:05:27;13.20;99.90
27848;DHT22;15212;48.830;8.730;2022-10-26T04:07:59;13.10;99.90
27848;DHT22;15212;48.830;8.730;2022-10-26T04:10:31;13.10;99.90
27848;DHT22;15212;48.830;8.730;2022-10-26T04:13:00;13.10;99.90
27848;DHT22;15212;48.830;8.730;2022-10-26T04:15:28;13.10;99.90
27848;DHT22;15212;48.830;8.730;2022-10-26T04:17:58;13.10;99.90
27848;DHT22;15212;48.830;8.730;2022-10-26T04:20:29;13.10;99.90
27848;DHT22;15212;48.830;8.730;2022-10-26T04:23:02;13.10;99.90
27848;DHT22;15212;48.830;8.730;2022-10-26T04:25:32;13.10;99.90
27848;DHT22;15212;48.830;8.730;2022-10-26T04:28:01;13.00;99.90
27848;DHT22;15212;48.830;8.730;2022-10-26T04:30:32;13.00;99.90
27848;DHT22;15212;48.830;8.730;2022-10-26T04:33:01;13.00;99.90
27848;DHT22;15212;48.830;8.730;2022-10-26T04:35:30;12.90;99.90
27848;DHT22;15212;48.830;8.730;2022-10-26T04:38:00;12.90;99.90
27848;DHT22;15212;48.830;8.730;2022-10-26T04:40:30;12.90;99.90
27848;DHT22;15212;48.830;8.730;2022-10-26T04:43:00;12.90;99.90
27848;DHT22;15212;48.830;8.730;2022-10-26T04:45:28;12.90;99.90
27848;DHT22;15212;48.830;8.730;2022-10-26T04:48:09;12.90;99.90
27848;DHT22;15212;48.830;8.730;2022-10-26T04:50:38;12.90;99.90
27848;DHT22;15212;48.830;8.730;2022-10-26T04:53:07;12.90;99.90
27848;DHT22;15212;48.830;8.730;2022-10-26T04:55:36;12.90;99.90
27848;DHT22;15212;48.830;8.730;2022-10-26T04:58:05;12.80;99.90
27848;DHT22;15212;48.830;8.730;2022-10-26T05:00:34;12.90;99.90
27848;DHT22;15212;48.830;8.730;2022-10-26T05:03:04;12.90;99.90
27848;DHT22;15212;48.830;8.730;2022-10-26T05:05:34;12.90;99.90
27848;DHT22;15212;48.830;8.730;2022-10-26T05:08:03;13.00;99.90
27848;DHT22;15212;48.830;8.730;2022-10-26T05:10:32;13.00;99.90
27848;DHT22;15212;48.830;8.730;2022-10-26T05:13:01;13.00;99.90
27848;DHT22;15212;48.830;8.730;2022-10-26T05:15:30;13.00;99.90
27848;DHT22;15212;48.830;8.730;2022-10-26T05:18:00;13.00;99.90
27848;DHT22;15212;48.830;8.730;2022-10-26T05:20:32;13.00;99.90
27848;DHT22;15212;48.830;8.730;2022-10-26T05:23:03;13.00;99.90
27848;DHT22;15212;48.830;8.730;2022-10-26T05:25:37;12.90;99.90
27848;DHT22;15212;48.830;8.730;2022-10-26T05:28:08;12.90;99.90
27848;DHT22;15212;48.830;8.730;2022-10-26T05:30:39;12.90;99.90
27848;DHT22;15212;48.830;8.730;2022-10-26T05:33:11;12.80;99.90
27848;DHT22;15212;48.830;8.730;2022-10-26T05:35:40;12.80;99.90
27848;DHT22;15212;48.830;8.730;2022-10-26T05:38:10;12.80;99.90
27848;DHT22;15212;48.830;8.730;2022-10-26T05:43:35;12.80;99.90
27848;DHT22;15212;48.830;8.730;2022-10-26T05:46:04;12.80;99.90
27848;DHT22;15212;48.830;8.730;2022-10-26T05:48:32;12.80;99.90
27848;DHT22;15212;48.830;8.730;2022-10-26T05:51:01;12.90;99.90
27848;DHT22;15212;48.830;8.730;2022-10-26T05:53:29;13.00;99.90
27848;DHT22;15212;48.830;8.730;2022-10-26T05:55:58;13.00;99.90
27848;DHT22;15212;48.830;8.730;2022-10-26T05:58:27;13.00;99.90
27848;DHT22;15212;48.830;8.730;2022-10-26T06:01:09;13.10;99.90
27848;DHT22;15212;48.830;8.730;2022-10-26T06:04:13;13.10;99.90
27848;DHT22;15212;48.830;8.730;2022-10-26T06:06:46;13.10;99.90
27848;DHT22;15212;48.830;8.730;2022-10-26T06:09:16;13.20;99.90
27848;DHT22;15212;48.830;8.730;2022-10-26T06:11:45;13.10;99.90
27848;DHT22;15212;48.830;8.730;2022-10-26T06:14:14;13.20;99.90
27848;DHT22;15212;48.830;8.730;2022-10-26T06:19:58;13.20;99.90
27848;DHT22;15212;48.830;8.730;2022-10-26T06:22:43;13.20;99.90
27848;DHT22;15212;48.830;8.730;2022-10-26T06:25:34;13.40;99.90
27848;DHT22;15212;48.830;8.730;2022-10-26T06:28:35;13.50;99.90
27848;DHT22;15212;48.830;8.730;2022-10-26T06:31:22;13.50;99.90
27848;DHT22;15212;48.830;8.730;2022-10-26T06:33:52;13.60;99.90
27848;DHT22;15212;48.830;8.730;2022-10-26T06:36:25;13.60;99.90
27848;DHT22;15212;48.830;8.730;2022-10-26T06:39:09;13.70;99.90
27848;DHT22;15212;48.830;8.730;2022-10-26T06:41:38;13.70;99.90
27848;DHT22;15212;48.830;8.730;2022-10-26T06:44:08;13.80;99.90
27848;DHT22;15212;48.830;8.730;2022-10-26T06:46:42;13.80;99.90
27848;DHT22;15212;48.830;8.730;2022-10-26T06:49:34;13.80;99.90
27848;DHT22;15212;48.830;8.730;2022-10-26T06:52:11;13.80;99.90
27848;DHT22;15212;48.830;8.730;2022-10-26T06:54:51;13.80;99.90
27848;DHT22;15212;48.830;8.730;2022-10-26T06:57:23;13.90;99.90
27848;DHT22;15212;48.830;8.730;2022-10-26T07:00:02;13.90;99.90
27848;DHT22;15212;48.830;8.730;2022-10-26T07:02:32;13.90;99.90
27848;DHT22;15212;48.830;8.730;2022-10-26T07:05:00;14.00;99.90
27848;DHT22;15212;48.830;8.730;2022-10-26T07:07:30;14.00;99.90
27848;DHT22;15212;48.830;8.730;2022-10-26T07:09:59;14.00;99.90
27848;DHT22;15212;48.830;8.730;2022-10-26T07:12:27;14.10;99.90
27848;DHT22;15212;48.830;8.730;2022-10-26T07:14:55;14.20;99.90
27848;DHT22;15212;48.830;8.730;2022-10-26T07:17:24;14.30;99.90
27848;DHT22;15212;48.830;8.730;2022-10-26T07:19:54;14.50;99.90
27848;DHT22;15212;48.830;8.730;2022-10-26T07:22:23;14.50;99.90
27848;DHT22;15212;48.830;8.730;2022-10-26T07:24:51;14.60;99.90
27848;DHT22;15212;48.830;8.730;2022-10-26T07:27:19;14.70;99.90
27848;DHT22;15212;48.830;8.730;2022-10-26T07:29:49;14.80;99.90
27848;DHT22;15212;48.830;8.730;2022-10-26T07:32:17;14.80;99.90
27848;DHT22;15212;48.830;8.730;2022-10-26T07:34:46;14.90;99.90
27848;DHT22;15212;48.830;8.730;2022-10-26T07:37:14;15.00;99.90
27848;DHT22;15212;48.830;8.730;2022-10-26T07:39:43;15.00;99.90
27848;DHT22;15212;48.830;8.730;2022-10-26T07:42:11;15.00;99.90
27848;DHT22;15212;48.830;8.730;2022-10-26T07:44:40;15.00;99.90
27848;DHT22;15212;48.830;8.730;2022-10-26T07:47:08;15.10;99.90
27848;DHT22;15212;48.830;8.730;2022-10-26T07:49:36;15.10;99.90
27848;DHT22;15212;48.830;8.730;2022-10-26T07:52:05;15.20;99.90
27848;DHT22;15212;48.830;8.730;2022-10-26T07:54:33;15.20;99.90
27848;DHT22;15212;48.830;8.730;2022-10-26T07:57:02;15.20;99.90
27848;DHT22;15212;48.830;8.730;2022-10-26T07:59:30;15.30;99.90
27848;DHT22;15212;48.830;8.730;2022-10-26T08:01:59;15.30;99.90
27848;DHT22;15212;48.830;8.730;2022-10-26T08:04:27;15.40;99.90
27848;DHT22;15212;48.830;8.730;2022-10-26T08:06:56;15.40;99.90
27848;DHT22;15212;48.830;8.730;2022-10-26T08:09:24;15.50;99.90
27848;DHT22;15212;48.830;8.730;2022-10-26T08:11:52;15.50;99.90
27848;DHT22;15212;48.830;8.730;2022-10-26T08:14:21;15.50;99.90
27848;DHT22;15212;48.830;8.730;2022-10-26T08:16:49;15.60;99.90
27848;DHT22;15212;48.830;8.730;2022-10-26T08:19:18;15.60;99.90
27848;DHT22;15212;48.830;8.730;2022-10-26T08:21:46;15.70;99.90
27848;DHT22;15212;48.830;8.730;2022-10-26T08:24:15;15.70;99.90
27848;DHT22;15212;48.830;8.730;2022-10-26T08:26:43;15.80;99.90
27848;DHT22;15212;48.830;8.730;2022-10-26T08:29:11;15.80;99.90
27848;DHT22;15212;48.830;8.730;2022-10-26T08:31:40;15.90;99.90
27848;DHT22;15212;48.830;8.730;2022-10-26T08:34:08;16.00;99.90
27848;DHT22;15212;48.830;8.730;2022-10-26T08:36:37;16.10;99.90
27848;DHT22;15212;48.830;8.730;2022-10-26T08:39:05;16.20;99.90
27848;DHT22;15212;48.830;8.730;2022-10-26T08:41:42;16.30;99.90
27848;DHT22;15212;48.830;8.730;2022-10-26T08:44:21;16.30;99.90
27848;DHT22;15212;48.830;8.730;2022-10-26T08:46:54;16.40;99.90
27848;DHT22;15212;48.830;8.730;2022-10-26T08:52:09;16.50;99.90
27848;DHT22;15212;48.830;8.730;2022-10-26T08:54:59;16.60;99.90
27848;DHT22;15212;48.830;8.730;2022-10-26T08:57:26;16.70;99.90
27848;DHT22;15212;48.830;8.730;2022-10-26T09:02:35;16.70;99.90
27848;DHT22;15212;48.830;8.730;2022-10-26T09:05:05;16.80;99.90
27848;DHT22;15212;48.830;8.730;2022-10-26T09:07:55;16.80;99.90
27848;DHT22;15212;48.830;8.730;2022-10-26T09:16:34;17.10;99.90
27848;DHT22;15212;48.830;8.730;2022-10-26T09:22:30;17.60;99.90
27848;DHT22;15212;48.830;8.730;2022-10-26T09:25:18;17.60;99.90
27848;DHT22;15212;48.830;8.730;2022-10-26T09:27:54;17.70;99.90
27848;DHT22;15212;48.830;8.730;2022-10-26T09:30:24;17.80;99.90
27848;DHT22;15212;48.830;8.730;2022-10-26T09:32:56;17.80;99.90
27848;DHT22;15212;48.830;8.730;2022-10-26T09:35:51;17.70;99.90
27848;DHT22;15212;48.830;8.730;2022-10-26T09:38:35;17.60;99.90
27848;DHT22;15212;48.830;8.730;2022-10-26T09:41:23;17.70;99.90
27848;DHT22;15212;48.830;8.730;2022-10-26T09:44:18;17.70;99.90
27848;DHT22;15212;48.830;8.730;2022-10-26T09:50:01;18.00;99.90
27848;DHT22;15212;48.830;8.730;2022-10-26T09:52:40;18.10;99.90
27848;DHT22;15212;48.830;8.730;2022-10-26T09:55:12;18.20;99.90
27848;DHT22;15212;48.830;8.730;2022-10-26T09:57:43;18.30;99.90
27848;DHT22;15212;48.830;8.730;2022-10-26T10:00:17;18.30;99.90
27848;DHT22;15212;48.830;8.730;2022-10-26T10:02:55;18.30;99.90
27848;DHT22;15212;48.830;8.730;2022-10-26T10:05:32;18.30;99.90
27848;DHT22;15212;48.830;8.730;2022-10-26T10:10:57;18.00;99.90
27848;DHT22;15212;48.830;8.730;2022-10-26T10:13:30;17.90;99.90
27848;DHT22;15212;48.830;8.730;2022-10-26T10:18:52;17.60;99.90
27848;DHT22;15212;48.830;8.730;2022-10-26T10:21:39;17.50;99.90
27848;DHT22;15212;48.830;8.730;2022-10-26T10:24:27;17.40;99.90
27848;DHT22;15212;48.830;8.730;2022-10-26T10:29:46;17.40;99.90
27848;DHT22;15212;48.830;8.730;2022-10-26T10:32:20;17.50;99.90
27848;DHT22;15212;48.830;8.730;2022-10-26T10:34:54;17.70;99.90
27848;DHT22;15212;48.830;8.730;2022-10-26T10:37:28;17.90;99.90
27848;DHT22;15212;48.830;8.730;2022-10-26T10:40:04;18.00;99.90
27848;DHT22;15212;48.830;8.730;2022-10-26T10:42:32;18.00;99.90
27848;DHT22;15212;48.830;8.730;2022-10-26T10:45:03;18.00;99.90
27848;DHT22;15212;48.830;8.730;2022-10-26T10:47:35;17.90;99.90
27848;DHT22;15212;48.830;8.730;2022-10-26T10:50:06;17.90;99.90
27848;DHT22;15212;48.830;8.730;2022-10-26T10:52:46;17.80;99.90
27848;DHT22;15212;48.830;8.730;2022-10-26T10:55:17;17.80;99.90
27848;DHT22;15212;48.830;8.730;2022-10-26T10:58:04;17.80;99.90
27848;DHT22;15212;48.830;8.730;2022-10-26T11:00:35;17.80;99.90
27848;DHT22;15212;48.830;8.730;2022-10-26T11:06:17;18.10;99.90
27848;DHT22;15212;48.830;8.730;2022-10-26T11:11:33;18.40;99.90
27848;DHT22;15212;48.830;8.730;2022-10-26T11:14:33;18.50;99.90
27848;DHT22;15212;48.830;8.730;2022-10-26T11:19:54;18.60;99.90
27848;DHT22;15212;48.830;8.730;2022-10-26T11:22:27;18.60;99.90
27848;DHT22;15212;48.830;8.730;2022-10-26T11:25:16;18.70;99.90
27848;DHT22;15212;48.830;8.730;2022-10-26T11:27:49;18.70;99.90
27848;DHT22;15212;48.830;8.730;2022-10-26T11:30:23;18.70;99.90
27848;DHT22;15212;48.830;8.730;2022-10-26T11:35:43;18.50;99.90
27848;DHT22;15212;48.830;8.730;2022-10-26T11:38:20;18.50;99.90
27848;DHT22;15212;48.830;8.730;2022-10-26T11:44:21;18.60;99.90
27848;DHT22;15212;48.830;8.730;2022-10-26T11:47:00;18.90;99.90
27848;DHT22;15212;48.830;8.730;2022-10-26T11:49:41;19.10;99.90
27848;DHT22;15212;48.830;8.730;2022-10-26T11:52:33;19.30;99.90
27848;DHT22;15212;48.830;8.730;2022-10-26T11:55:01;19.50;99.90
27848;DHT22;15212;48.830;8.730;2022-10-26T11:57:35;19.60;99.90
27848;DHT22;15212;48.830;8.730;2022-10-26T12:02:56;19.90;99.90
27848;DHT22;15212;48.830;8.730;2022-10-26T12:05:45;19.90;99.90
27848;DHT22;15212;48.830;8.730;2022-10-26T12:10:57;20.10;99.90
27848;DHT22;15212;48.830;8.730;2022-10-26T12:13:44;20.20;99.90
27848;DHT22;15212;48.830;8.730;2022-10-26T12:19:04;20.40;99.90
27848;DHT22;15212;48.830;8.730;2022-10-26T12:21:33;20.40;99.90
27848;DHT22;15212;48.830;8.730;2022-10-26T12:27:01;20.40;99.90
27848;DHT22;15212;48.830;8.730;2022-10-26T12:29:43;20.30;99.90
27848;DHT22;15212;48.830;8.730;2022-10-26T12:35:28;20.10;99.90
27848;DHT22;15212;48.830;8.730;2022-10-26T12:41:14;20.00;99.90
27848;DHT22;15212;48.830;8.730;2022-10-26T12:43:54;20.00;99.90
27848;DHT22;15212;48.830;8.730;2022-10-26T12:48:57;20.00;99.90
27848;DHT22;15212;48.830;8.730;2022-10-26T12:59:50;20.00;99.90
27848;DHT22;15212;48.830;8.730;2022-10-26T13:05:36;20.00;99.90
27848;DHT22;15212;48.830;8.730;2022-10-26T13:08:11;20.00;99.90
27848;DHT22;15212;48.830;8.730;2022-10-26T13:10:45;20.00;99.90
27848;DHT22;15212;48.830;8.730;2022-10-26T13:13:23;20.00;99.90
27848;DHT22;15212;48.830;8.730;2022-10-26T13:15:53;20.00;99.90
27848;DHT22;15212;48.830;8.730;2022-10-26T13:18:22;19.90;99.90
27848;DHT22;15212;48.830;8.730;2022-10-26T13:21:03;19.90;99.90
27848;DHT22;15212;48.830;8.730;2022-10-26T13:26:29;19.90;99.90
27848;DHT22;15212;48.830;8.730;2022-10-26T13:28:59;19.90;99.90
27848;DHT22;15212;48.830;8.730;2022-10-26T13:34:09;19.80;99.90
27848;DHT22;15212;48.830;8.730;2022-10-26T13:36:44;19.80;99.90
27848;DHT22;15212;48.830;8.730;2022-10-26T13:39:34;19.70;99.90
27848;DHT22;15212;48.830;8.730;2022-10-26T13:41:58;19.80;99.90
27848;DHT22;15212;48.830;8.730;2022-10-26T13:44:32;19.80;99.90
27848;DHT22;15212;48.830;8.730;2022-10-26T13:47:13;19.90;99.90
27848;DHT22;15212;48.830;8.730;2022-10-26T13:49:47;20.00;99.90
27848;DHT22;15212;48.830;8.730;2022-10-26T13:52:25;20.00;99.90
27848;DHT22;15212;48.830;8.730;2022-10-26T13:54:55;20.00;99.90
27848;DHT22;15212;48.830;8.730;2022-10-26T13:57:37;20.00;99.90
27848;DHT22;15212;48.830;8.730;2022-10-26T14:00:20;20.00;99.90
27848;DHT22;15212;48.830;8.730;2022-10-26T14:02:49;20.00;99.90
27848;DHT22;15212;48.830;8.730;2022-10-26T14:05:18;19.90;99.90
27848;DHT22;15212;48.830;8.730;2022-10-26T14:07:51;19.90;99.90
27848;DHT22;15212;48.830;8.730;2022-10-26T14:10:33;19.80;99.90
27848;DHT22;15212;48.830;8.730;2022-10-26T14:13:14;19.80;99.90
27848;DHT22;15212;48.830;8.730;2022-10-26T14:15:44;19.60;99.90
27848;DHT22;15212;48.830;8.730;2022-10-26T14:18:21;19.60;99.90
27848;DHT22;15212;48.830;8.730;2022-10-26T14:21:02;19.60;99.90
27848;DHT22;15212;48.830;8.730;2022-10-26T14:23:36;19.60;99.90
27848;DHT22;15212;48.830;8.730;2022-10-26T14:26:29;19.60;99.90
27848;DHT22;15212;48.830;8.730;2022-10-26T14:29:01;19.50;99.90
27848;DHT22;15212;48.830;8.730;2022-10-26T14:31:31;19.60;99.90
27848;DHT22;15212;48.830;8.730;2022-10-26T14:34:03;19.50;99.90
27848;DHT22;15212;48.830;8.730;2022-10-26T14:36:42;19.50;99.90
27848;DHT22;15212;48.830;8.730;2022-10-26T14:42:02;19.50;99.90
27848;DHT22;15212;48.830;8.730;2022-10-26T14:44:34;19.40;99.90
27848;DHT22;15212;48.830;8.730;2022-10-26T14:47:03;19.40;99.90
27848;DHT22;15212;48.830;8.730;2022-10-26T14:49:33;19.40;99.90
27848;DHT22;15212;48.830;8.730;2022-10-26T14:52:04;19.40;99.90
27848;DHT22;15212;48.830;8.730;2022-10-26T14:54:33;19.40;99.90
27848;DHT22;15212;48.830;8.730;2022-10-26T14:57:01;19.30;99.90
27848;DHT22;15212;48.830;8.730;2022-10-26T14:59:32;19.30;99.90
27848;DHT22;15212;48.830;8.730;2022-10-26T15:02:18;19.10;99.90
27848;DHT22;15212;48.830;8.730;2022-10-26T15:05:14;19.00;99.90
27848;DHT22;15212;48.830;8.730;2022-10-26T15:07:54;18.90;99.90
27848;DHT22;15212;48.830;8.730;2022-10-26T15:13:19;18.70;99.90
27848;DHT22;15212;48.830;8.730;2022-10-26T15:15:51;18.70;99.90
27848;DHT22;15212;48.830;8.730;2022-10-26T15:18:22;18.70;99.90
27848;DHT22;15212;48.830;8.730;2022-10-26T15:20:54;18.60;99.90
27848;DHT22;15212;48.830;8.730;2022-10-26T15:23:24;18.60;99.90
27848;DHT22;15212;48.830;8.730;2022-10-26T15:25:56;18.60;99.90
27848;DHT22;15212;48.830;8.730;2022-10-26T15:28:39;18.50;99.90
27848;DHT22;15212;48.830;8.730;2022-10-26T15:36:25;18.20;99.90
27848;DHT22;15212;48.830;8.730;2022-10-26T15:38:54;18.10;99.90
27848;DHT22;15212;48.830;8.730;2022-10-26T15:41:35;18.00;99.90
27848;DHT22;15212;48.830;8.730;2022-10-26T15:44:09;17.90;99.90
27848;DHT22;15212;48.830;8.730;2022-10-26T15:46:39;17.70;99.90
27848;DHT22;15212;48.830;8.730;2022-10-26T15:49:13;17.50;99.90
27848;DHT22;15212;48.830;8.730;2022-10-26T15:51:43;17.40;99.90
27848;DHT22;15212;48.830;8.730;2022-10-26T15:54:12;17.20;99.90
27848;DHT22;15212;48.830;8.730;2022-10-26T15:56:42;17.10;99.90
27848;DHT22;15212;48.830;8.730;2022-10-26T15:59:18;16.90;99.90
27848;DHT22;15212;48.830;8.730;2022-10-26T16:01:47;16.70;99.90
27848;DHT22;15212;48.830;8.730;2022-10-26T16:04:17;16.50;99.90
27848;DHT22;15212;48.830;8.730;2022-10-26T16:06:45;16.40;99.90
27848;DHT22;15212;48.830;8.730;2022-10-26T16:09:15;16.30;99.90
27848;DHT22;15212;48.830;8.730;2022-10-26T16:11:44;16.10;99.90
27848;DHT22;15212;48.830;8.730;2022-10-26T16:14:13;16.00;99.90
27848;DHT22;15212;48.830;8.730;2022-10-26T16:16:41;15.80;99.90
27848;DHT22;15212;48.830;8.730;2022-10-26T16:19:10;15.70;99.90
27848;DHT22;15212;48.830;8.730;2022-10-26T16:21:38;15.60;99.90
27848;DHT22;15212;48.830;8.730;2022-10-26T16:24:08;15.50;99.90
27848;DHT22;15212;48.830;8.730;2022-10-26T16:26:36;15.40;99.90
27848;DHT22;15212;48.830;8.730;2022-10-26T16:29:05;15.30;99.90
27848;DHT22;15212;48.830;8.730;2022-10-26T16:31:33;15.20;99.90
27848;DHT22;15212;48.830;8.730;2022-10-26T16:34:02;15.10;99.90
27848;DHT22;15212;48.830;8.730;2022-10-26T16:36:30;15.00;99.90
27848;DHT22;15212;48.830;8.730;2022-10-26T16:39:00;14.90;99.90
27848;DHT22;15212;48.830;8.730;2022-10-26T16:41:28;14.80;99.90
27848;DHT22;15212;48.830;8.730;2022-10-26T16:43:59;14.80;99.90
27848;DHT22;15212;48.830;8.730;2022-10-26T16:46:27;14.70;99.90
27848;DHT22;15212;48.830;8.730;2022-10-26T16:48:55;14.70;99.90
27848;DHT22;15212;48.830;8.730;2022-10-26T16:51:26;14.70;99.90
27848;DHT22;15212;48.830;8.730;2022-10-26T16:53:56;14.60;99.90
27848;DHT22;15212;48.830;8.730;2022-10-26T16:56:26;14.60;99.90
27848;DHT22;15212;48.830;8.730;2022-10-26T16:58:55;14.60;99.90
27848;DHT22;15212;48.830;8.730;2022-10-26T17:01:24;14.60;99.90
27848;DHT22;15212;48.830;8.730;2022-10-26T17:03:52;14.50;99.90
27848;DHT22;15212;48.830;8.730;2022-10-26T17:06:21;14.40;99.90
27848;DHT22;15212;48.830;8.730;2022-10-26T17:08:49;14.40;99.90
27848;DHT22;15212;48.830;8.730;2022-10-26T17:11:19;14.30;99.90
27848;DHT22;15212;48.830;8.730;2022-10-26T17:13:55;14.30;99.90
27848;DHT22;15212;48.830;8.730;2022-10-26T17:16:22;14.20;99.90
27848;DHT22;15212;48.830;8.730;2022-10-26T17:18:51;14.20;99.90
27848;DHT22;15212;48.830;8.730;2022-10-26T17:21:31;14.30;99.90
27848;DHT22;15212;48.830;8.730;2022-10-26T17:24:01;14.30;99.90
27848;DHT22;15212;48.830;8.730;2022-10-26T17:26:30;14.40;99.90
27848;DHT22;15212;48.830;8.730;2022-10-26T17:28:59;14.30;99.90
27848;DHT22;15212;48.830;8.730;2022-10-26T17:31:27;14.40;99.90
27848;DHT22;15212;48.830;8.730;2022-10-26T17:33:56;14.40;99.90
27848;DHT22;15212;48.830;8.730;2022-10-26T17:36:25;14.30;99.90
27848;DHT22;15212;48.830;8.730;2022-10-26T17:38:54;14.40;99.90
27848;DHT22;15212;48.830;8.730;2022-10-26T17:41:23;14.30;99.90
27848;DHT22;15212;48.830;8.730;2022-10-26T17:43:52;14.30;99.90
27848;DHT22;15212;48.830;8.730;2022-10-26T17:46:23;14.30;99.90
27848;DHT22;15212;48.830;8.730;2022-10-26T17:51:42;14.20;99.90
27848;DHT22;15212;48.830;8.730;2022-10-26T17:54:10;14.20;99.90
27848;DHT22;15212;48.830;8.730;2022-10-26T17:56:38;14.10;99.90